Hovedside
METAR-TAF:

METAR-TAF

Lufthavner :

Beirut, Libanon

breddegrad: 33-49N, lengdegrad: 035-29E, høyde over havet: 29 m

Gjeldene værobservasjon

Denne rapporten ble laget for 53 minutter siden, klokken 04:00 UTC
Vind 4 kt fra Sør-sørøst
Temperatur 25°C
Luftfuktighet 61%
Trykk 1016 hPa
Sikt 10 km eller mer
Få skyer i en høyde av 2700 ft

METAR: OLBA 210400Z 16004KT 9999 FEW027 25/17 Q1016 NOSIG

Tid: 07:53 (04:53 UTC)

Varsel

Denne rapporten ble laget for 6 timer og 53 minutter siden, klokken 22:00 UTC
Varsel gyldig fra 21. klokken 00 UTC til 22. klokken 06 UTC
Vind 5 kt fra Sørøst
Sikt: 8000 m
Spredte skyer i en høyde av 3000 ft
Blir
fra 21. klokken 06 UTC til 21. klokken 08 UTC
Vind 14 kt fra Vest-sørvest
Blir
fra 21. klokken 20 UTC til 21. klokken 23 UTC
Vind 5 kt fra Sør-sørøst

TAF: OLBA 202200Z 2100/2206 14005KT 8000 SCT030 BECMG 2106/2108 25014KT BECMG 2120/2123 15005KT

Værobservasjoner og værvarsel for over 4000 flyplasser (METAR- og TAF-rapporter).

Tilgjengelige stasjoner er representert av de røde og gule prikkene på kartet.

Hold musepekeren over prikken for å se navnet på stasjonen.

Klikk så for å se værobservasjoner og -varsler.

For å forandre kartet kan du klikke på den grønne knappen med svart kryss for å zoome inn, på den grønne knappen med strek for å zoome ut, eller på de grønne pilene for å se tilstøtende kart.


METAR-TAF: